createdAt,value
2022-12-24T00:01:04.952Z,34.05
2022-12-24T00:03:32.248Z,27.00
2022-12-24T00:06:04.703Z,23.77
2022-12-24T00:08:31.414Z,22.85
2022-12-24T00:10:59.149Z,25.92
2022-12-24T00:13:25.865Z,28.23
2022-12-24T00:15:52.708Z,28.80
2022-12-24T00:18:19.440Z,28.55
2022-12-24T00:20:50.174Z,23.27
2022-12-24T00:23:18.100Z,27.33
2022-12-24T00:25:45.672Z,25.25
2022-12-24T00:28:14.101Z,24.55
2022-12-24T00:30:42.469Z,33.10
2022-12-24T00:33:09.723Z,27.75
2022-12-24T00:35:38.111Z,27.92
2022-12-24T00:38:05.380Z,28.42
2022-12-24T00:40:33.084Z,40.25
2022-12-24T00:42:59.955Z,31.13
2022-12-24T00:45:29.287Z,33.88
2022-12-24T00:47:55.996Z,30.95
2022-12-24T00:50:22.710Z,35.50
2022-12-24T00:52:49.588Z,25.95
2022-12-24T00:55:16.393Z,25.48
2022-12-24T00:57:43.109Z,34.88
2022-12-24T01:00:10.579Z,33.15
2022-12-24T01:02:37.512Z,39.50
2022-12-24T01:05:10.625Z,31.95
2022-12-24T01:07:44.196Z,32.60
2022-12-24T01:10:14.046Z,26.40
2022-12-24T01:12:41.186Z,31.70
2022-12-24T01:15:09.070Z,32.05
2022-12-24T01:17:36.979Z,39.55
2022-12-24T01:20:06.023Z,26.13
2022-12-24T01:22:32.867Z,27.10
2022-12-24T01:24:59.604Z,27.10
2022-12-24T01:27:26.444Z,32.53
2022-12-24T01:29:53.201Z,24.67
2022-12-24T01:32:19.895Z,29.38
2022-12-24T01:34:46.622Z,29.30
2022-12-24T01:37:13.405Z,30.38
2022-12-24T01:39:40.109Z,21.95
2022-12-24T01:42:40.978Z,23.38
2022-12-24T01:45:41.878Z,33.10
2022-12-24T01:48:36.214Z,23.85
2022-12-24T01:51:19.824Z,24.60
2022-12-24T01:53:50.455Z,30.58
2022-12-24T01:56:18.872Z,30.88
2022-12-24T01:58:52.427Z,24.58
2022-12-24T02:01:19.266Z,31.60
2022-12-24T02:03:46.100Z,30.23
2022-12-24T02:06:16.646Z,25.70
2022-12-24T02:08:44.326Z,26.38
2022-12-24T02:11:13.474Z,26.52
2022-12-24T02:13:42.429Z,30.13
2022-12-24T02:17:00.639Z,26.98
2022-12-24T02:19:54.421Z,26.80
2022-12-24T02:22:33.099Z,27.83
2022-12-24T02:25:23.234Z,28.23
2022-12-24T02:28:13.466Z,19.95
2022-12-24T02:30:48.881Z,22.27
2022-12-24T02:33:49.573Z,25.65
2022-12-24T02:36:25.654Z,27.17
2022-12-24T02:39:05.090Z,33.08
2022-12-24T02:42:01.405Z,30.30
2022-12-24T02:44:30.647Z,25.02
2022-12-24T02:46:59.939Z,25.90
2022-12-24T02:49:26.706Z,21.00
2022-12-24T02:51:53.425Z,19.17
2022-12-24T02:54:20.277Z,24.00
2022-12-24T02:57:17.822Z,27.13
2022-12-24T03:00:04.998Z,21.13
2022-12-24T03:02:56.858Z,25.58
2022-12-24T03:05:49.707Z,19.58
2022-12-24T03:08:49.638Z,22.25
2022-12-24T03:11:18.057Z,20.48
2022-12-24T03:13:45.596Z,16.15
2022-12-24T03:16:17.950Z,20.02
2022-12-24T03:18:47.961Z,23.02
2022-12-24T03:21:31.728Z,17.85
2022-12-24T03:23:58.897Z,20.02
2022-12-24T03:26:27.210Z,22.52
2022-12-24T03:28:54.169Z,23.85
2022-12-24T03:31:21.070Z,19.58
2022-12-24T03:33:48.815Z,26.35
2022-12-24T03:36:15.938Z,23.95
2022-12-24T03:38:42.698Z,14.55
2022-12-24T03:41:09.914Z,21.00
2022-12-24T03:43:36.692Z,23.23
2022-12-24T03:46:07.906Z,20.73
2022-12-24T03:48:35.902Z,17.20
2022-12-24T03:51:04.016Z,19.80
2022-12-24T03:53:30.959Z,17.17
2022-12-24T03:55:58.159Z,21.95
2022-12-24T03:58:24.889Z,21.77
2022-12-24T04:00:54.006Z,19.52
2022-12-24T04:03:20.968Z,18.90
2022-12-24T04:05:47.815Z,13.02
2022-12-24T04:08:14.546Z,14.25
2022-12-24T04:10:41.269Z,12.70
2022-12-24T04:13:07.962Z,22.83
2022-12-24T04:15:34.649Z,16.52
2022-12-24T04:18:01.355Z,14.30
2022-12-24T04:20:28.041Z,16.30
2022-12-24T04:22:54.750Z,18.00
2022-12-24T04:25:21.449Z,14.57
2022-12-24T04:27:48.160Z,22.20
2022-12-24T04:30:14.953Z,14.48
2022-12-24T04:32:41.662Z,21.90
2022-12-24T04:35:09.047Z,19.50
2022-12-24T04:37:35.816Z,16.92
2022-12-24T04:40:03.182Z,12.05
2022-12-24T04:42:29.911Z,16.90
2022-12-24T04:44:56.611Z,18.08
2022-12-24T04:47:23.390Z,15.85
2022-12-24T04:49:50.667Z,21.33
2022-12-24T04:52:17.377Z,20.30
2022-12-24T04:54:44.074Z,22.33
2022-12-24T04:57:10.876Z,20.25
2022-12-24T04:59:37.571Z,13.18
2022-12-24T05:02:04.505Z,20.20
2022-12-24T05:04:31.878Z,23.83
2022-12-24T05:06:58.573Z,23.15
2022-12-24T05:09:25.265Z,18.20
2022-12-24T05:11:52.082Z,14.43
2022-12-24T05:14:18.780Z,19.63
2022-12-24T05:16:45.531Z,23.58
2022-12-24T05:19:12.784Z,17.85
2022-12-24T05:21:39.520Z,19.35
2022-12-24T05:24:25.343Z,19.92
2022-12-24T05:26:55.887Z,17.95
2022-12-24T05:29:22.646Z,18.38
2022-12-24T05:31:50.317Z,14.85
2022-12-24T05:34:17.356Z,18.77
2022-12-24T05:36:44.625Z,29.33
2022-12-24T05:39:18.426Z,19.58
2022-12-24T06:04:40.768Z,22.02
2022-12-24T06:07:07.587Z,20.15
2022-12-24T06:09:34.346Z,30.90
2022-12-24T06:12:01.047Z,26.75
2022-12-24T06:14:27.744Z,23.65
2022-12-24T06:16:54.619Z,23.92
2022-12-24T06:19:21.413Z,25.40
2022-12-24T06:21:48.130Z,23.05
2022-12-24T06:24:15.315Z,25.08
2022-12-24T06:26:42.065Z,25.90
2022-12-24T06:29:08.815Z,31.83
2022-12-24T06:31:35.634Z,27.70
2022-12-24T06:34:02.414Z,23.98
2022-12-24T06:36:29.203Z,26.92
2022-12-24T06:38:55.945Z,22.83
2022-12-24T06:41:23.462Z,28.92
2022-12-24T06:43:52.467Z,35.13
2022-12-24T06:46:20.309Z,30.92
2022-12-24T06:48:47.884Z,22.45
2022-12-24T06:51:19.379Z,30.23
2022-12-24T06:53:46.173Z,28.23
2022-12-24T06:56:14.370Z,36.83
2022-12-24T06:58:41.846Z,22.45
2022-12-24T07:01:13.644Z,32.10
2022-12-24T07:03:41.385Z,29.65
2022-12-24T07:06:24.933Z,23.50
2022-12-24T07:08:51.730Z,30.30
2022-12-24T07:11:18.996Z,33.13
2022-12-24T07:13:47.353Z,32.13
2022-12-24T07:16:14.251Z,27.73
2022-12-24T07:18:41.074Z,24.30
2022-12-24T07:21:07.794Z,25.30
2022-12-24T07:23:35.127Z,24.80
2022-12-24T07:26:06.269Z,25.17
2022-12-24T07:28:33.415Z,24.13
2022-12-24T07:31:00.792Z,26.48
2022-12-24T07:33:27.639Z,24.75
2022-12-24T07:36:08.916Z,22.65
2022-12-24T07:38:37.805Z,38.67
2022-12-24T07:41:04.671Z,33.40
2022-12-24T07:43:33.370Z,28.08
2022-12-24T07:46:00.104Z,31.35
2022-12-24T07:48:28.899Z,25.85
2022-12-24T07:50:57.070Z,28.85
2022-12-24T07:53:26.418Z,25.08
2022-12-24T07:55:53.596Z,22.33
2022-12-24T07:58:21.376Z,30.88
2022-12-24T08:00:48.200Z,30.33
2022-12-24T08:03:21.517Z,23.63
2022-12-24T08:05:48.912Z,24.52
2022-12-24T08:08:15.783Z,26.88
2022-12-24T08:10:44.639Z,25.63
2022-12-24T08:13:11.811Z,32.67
2022-12-24T08:15:38.532Z,40.15
2022-12-24T08:18:05.481Z,26.83
2022-12-24T08:20:32.421Z,24.48
2022-12-24T08:22:59.123Z,26.92
2022-12-24T08:25:25.816Z,22.90
2022-12-24T08:27:52.532Z,23.80
2022-12-24T08:30:21.505Z,22.95
2022-12-24T08:32:48.678Z,26.05
2022-12-24T08:35:15.431Z,30.65
2022-12-24T08:37:42.155Z,28.92
2022-12-24T08:40:09.818Z,31.83
2022-12-24T08:42:36.601Z,35.33
2022-12-24T08:45:03.798Z,26.30
2022-12-24T08:47:30.492Z,26.52
2022-12-24T08:49:57.169Z,27.60
2022-12-24T08:52:23.865Z,25.38
2022-12-24T08:54:50.585Z,26.58
2022-12-24T08:57:17.350Z,23.60
2022-12-24T08:59:44.048Z,31.02
2022-12-24T09:02:10.937Z,24.08
2022-12-24T09:04:41.252Z,33.47
2022-12-24T09:07:09.605Z,31.80
2022-12-24T09:09:38.228Z,22.27
2022-12-24T09:12:09.916Z,27.38
2022-12-24T09:14:36.636Z,26.45
2022-12-24T09:17:03.403Z,33.10
2022-12-24T09:19:30.172Z,34.20
2022-12-24T09:21:56.928Z,33.88
2022-12-24T09:24:23.646Z,23.75
2022-12-24T09:26:57.274Z,27.60
2022-12-24T09:29:24.138Z,30.05
2022-12-24T09:31:51.044Z,30.40
2022-12-24T09:34:17.850Z,29.52
2022-12-24T09:36:46.048Z,31.83
2022-12-24T09:39:13.041Z,30.58
2022-12-24T09:42:19.730Z,24.92
2022-12-24T09:45:18.714Z,34.55
2022-12-24T09:47:50.942Z,23.20
2022-12-24T09:51:04.900Z,30.10
2022-12-24T09:54:23.028Z,26.80
2022-12-24T09:56:50.210Z,35.00
2022-12-24T09:59:23.353Z,35.25
2022-12-24T10:01:54.001Z,31.55
2022-12-24T10:04:28.270Z,29.40
2022-12-24T10:07:50.089Z,33.20
2022-12-24T10:10:44.356Z,27.40
2022-12-24T10:13:48.356Z,30.25
2022-12-24T10:16:50.097Z,27.30
2022-12-24T10:19:52.653Z,35.40
2022-12-24T10:25:29.673Z,29.63
2022-12-24T10:28:00.881Z,23.63
2022-12-24T10:30:28.536Z,24.70
2022-12-24T10:32:55.408Z,29.02
2022-12-24T10:35:27.441Z,26.40
2022-12-24T10:40:29.705Z,23.55
2022-12-24T10:42:56.468Z,35.67
2022-12-24T10:45:26.181Z,27.88
2022-12-24T10:47:58.802Z,21.38
2022-12-24T10:50:53.825Z,24.10
2022-12-24T10:53:43.186Z,32.67
2022-12-24T10:56:13.455Z,24.80
2022-12-24T10:58:52.575Z,30.10
2022-12-24T11:01:20.716Z,31.05
2022-12-24T11:04:01.589Z,32.05
2022-12-24T11:06:28.291Z,37.10
2022-12-24T11:09:21.547Z,32.70
2022-12-24T11:11:48.968Z,24.10
2022-12-24T11:14:18.364Z,21.95
2022-12-24T11:16:55.105Z,33.53
2022-12-24T11:19:41.502Z,25.10
2022-12-24T11:22:28.846Z,32.13
2022-12-24T11:25:11.403Z,24.17
2022-12-24T11:27:44.362Z,24.35
2022-12-24T11:30:17.136Z,23.05
2022-12-24T11:33:08.202Z,27.25
2022-12-24T11:35:46.638Z,24.45
2022-12-24T11:38:21.629Z,22.95
2022-12-24T11:40:58.098Z,36.78
2022-12-24T11:43:25.297Z,28.27
2022-12-24T11:45:57.603Z,20.40
2022-12-24T11:48:34.842Z,24.42
2022-12-24T11:51:04.945Z,26.65
2022-12-24T11:53:41.885Z,28.63
2022-12-24T11:56:17.501Z,23.08
2022-12-24T11:58:52.401Z,25.27
2022-12-24T12:01:40.256Z,26.13
2022-12-24T12:04:22.013Z,23.13
2022-12-24T12:07:14.352Z,29.23
2022-12-24T12:09:47.051Z,25.77
2022-12-24T12:12:19.282Z,28.15
2022-12-24T12:14:58.452Z,22.35
2022-12-24T12:17:52.656Z,33.00
2022-12-24T12:20:25.174Z,29.05
2022-12-24T12:23:13.664Z,30.15
2022-12-24T12:25:55.518Z,25.67
2022-12-24T12:28:58.321Z,23.63
2022-12-24T12:31:36.800Z,22.42
2022-12-24T12:34:17.248Z,27.67
2022-12-24T12:36:49.680Z,19.48
2022-12-24T12:39:16.706Z,29.33
2022-12-24T12:41:56.269Z,23.25
2022-12-24T12:44:38.331Z,29.77
2022-12-24T12:50:34.045Z,25.55
2022-12-24T12:53:40.553Z,24.25
2022-12-24T12:56:17.127Z,24.15
2022-12-24T12:59:16.086Z,26.33
2022-12-24T13:01:55.392Z,17.33
2022-12-24T13:05:15.203Z,22.60
2022-12-24T13:08:33.619Z,18.15
2022-12-24T13:11:23.573Z,18.27
2022-12-24T13:14:30.336Z,21.42
2022-12-24T13:17:35.933Z,22.83
2022-12-24T13:20:40.159Z,18.48
2022-12-24T13:23:21.518Z,17.15
2022-12-24T13:25:51.488Z,30.90
2022-12-24T13:28:38.644Z,30.10
2022-12-24T13:31:19.683Z,22.45
2022-12-24T13:33:49.856Z,20.43
2022-12-24T13:36:18.834Z,18.55
2022-12-24T13:38:56.925Z,19.30
2022-12-24T13:41:38.723Z,15.82
2022-12-24T13:44:15.294Z,20.55
2022-12-24T13:46:50.901Z,17.67
2022-12-24T13:49:33.351Z,22.75
2022-12-24T13:52:16.325Z,19.30
2022-12-24T13:55:11.642Z,19.15
2022-12-24T13:58:04.277Z,19.75
2022-12-24T14:00:42.401Z,23.48
2022-12-24T14:03:15.417Z,22.98
2022-12-24T14:05:50.797Z,15.77
2022-12-24T14:08:32.171Z,26.15
2022-12-24T14:11:12.828Z,13.27
2022-12-24T14:13:39.477Z,23.25
2022-12-24T14:16:15.810Z,19.90
2022-12-24T14:18:46.863Z,19.48
2022-12-24T14:21:27.950Z,20.10
2022-12-24T14:24:01.611Z,21.05
2022-12-24T14:26:35.937Z,20.70
2022-12-24T14:29:11.602Z,18.05
2022-12-24T14:31:38.367Z,18.05
2022-12-24T14:34:13.459Z,22.08
2022-12-24T14:36:44.395Z,21.10
2022-12-24T14:39:37.685Z,18.95
2022-12-24T14:42:41.346Z,17.15
2022-12-24T14:45:28.566Z,24.17
2022-12-24T14:48:29.064Z,19.98
2022-12-24T14:51:33.682Z,16.17
2022-12-24T14:54:38.340Z,21.80
2022-12-24T14:57:13.519Z,19.95
2022-12-24T15:00:02.031Z,19.98
2022-12-24T15:02:40.736Z,19.95
2022-12-24T15:05:13.346Z,26.38
2022-12-24T15:08:09.292Z,19.45
2022-12-24T15:10:39.904Z,19.30
2022-12-24T15:13:46.907Z,22.55
2022-12-24T15:16:26.306Z,24.08
2022-12-24T15:18:58.737Z,19.25
2022-12-24T15:21:41.192Z,10.48
2022-12-24T15:24:44.746Z,14.68
2022-12-24T15:27:25.848Z,19.23
2022-12-24T15:29:57.198Z,25.98
2022-12-24T15:32:24.679Z,19.40
2022-12-24T15:34:55.454Z,15.85
2022-12-24T15:37:27.550Z,12.20
2022-12-24T15:42:44.523Z,11.20
2022-12-24T15:45:31.518Z,12.15
2022-12-24T15:48:11.791Z,14.73
2022-12-24T15:50:45.883Z,9.30
2022-12-24T15:53:34.563Z,13.40
2022-12-24T15:56:27.590Z,14.88
2022-12-24T15:59:28.047Z,11.07
2022-12-24T16:01:54.974Z,15.20
2022-12-24T16:04:27.426Z,14.00
2022-12-24T16:07:03.094Z,10.50
2022-12-24T16:09:42.344Z,15.70
2022-12-24T16:12:35.600Z,15.40
2022-12-24T16:15:02.386Z,19.83
2022-12-24T16:17:31.774Z,12.98
2022-12-24T16:20:07.702Z,13.68
2022-12-24T16:22:39.633Z,14.55
2022-12-24T16:25:36.021Z,12.57
2022-12-24T16:28:21.825Z,17.95
2022-12-24T16:30:49.356Z,13.05
2022-12-24T16:33:19.114Z,18.40
2022-12-24T16:35:46.853Z,15.57
2022-12-24T16:38:13.965Z,16.38
2022-12-24T16:40:41.910Z,16.55
2022-12-24T16:43:28.595Z,15.90
2022-12-24T16:46:05.300Z,14.18
2022-12-24T16:48:36.130Z,22.65
2022-12-24T16:51:03.598Z,12.32
2022-12-24T16:53:30.285Z,16.67
2022-12-24T16:55:57.008Z,19.80
2022-12-24T16:58:23.696Z,14.73
2022-12-24T17:00:50.472Z,23.85
2022-12-24T17:03:17.324Z,18.58
2022-12-24T17:05:45.090Z,12.63
2022-12-24T17:08:13.080Z,19.40
2022-12-24T17:10:40.400Z,7.25
2022-12-24T17:13:07.375Z,16.48
2022-12-24T17:15:34.380Z,10.50
2022-12-24T17:18:01.131Z,15.02
2022-12-24T17:20:27.900Z,13.45
2022-12-24T17:22:54.651Z,14.35
2022-12-24T17:25:21.423Z,14.18
2022-12-24T17:27:48.154Z,12.02
2022-12-24T17:30:16.183Z,11.23
2022-12-24T17:32:42.942Z,15.18
2022-12-24T17:35:09.894Z,12.85
2022-12-24T17:37:36.630Z,19.33
2022-12-24T17:40:04.000Z,16.88
2022-12-24T17:42:30.800Z,14.68
2022-12-24T17:44:57.555Z,10.35
2022-12-24T17:47:24.284Z,18.95
2022-12-24T17:49:51.037Z,11.75
2022-12-24T17:52:17.763Z,11.60
2022-12-24T17:54:44.502Z,15.95
2022-12-24T17:57:11.197Z,14.32
2022-12-24T17:59:37.902Z,14.82
2022-12-24T18:02:04.812Z,18.55
2022-12-24T18:04:31.742Z,15.88
2022-12-24T18:07:02.412Z,27.23
2022-12-24T18:09:29.935Z,29.77
2022-12-24T18:11:56.687Z,20.50
2022-12-24T18:14:23.457Z,20.90
2022-12-24T18:16:50.465Z,16.52
2022-12-24T18:19:17.553Z,24.63
2022-12-24T18:21:44.305Z,19.52
2022-12-24T18:24:12.998Z,18.40
2022-12-24T18:26:40.190Z,21.52
2022-12-24T18:29:08.572Z,20.75
2022-12-24T18:31:35.869Z,24.20
2022-12-24T18:34:05.295Z,28.77
2022-12-24T18:36:32.313Z,27.17
2022-12-24T18:38:59.230Z,23.35
2022-12-24T18:41:30.206Z,17.38
2022-12-24T18:43:58.187Z,23.58
2022-12-24T18:46:31.384Z,25.02
2022-12-24T18:49:00.106Z,25.20
2022-12-24T18:51:32.837Z,18.15
2022-12-24T18:53:59.554Z,15.65
2022-12-24T18:56:27.233Z,21.30
2022-12-24T18:59:00.489Z,18.52
2022-12-24T19:01:34.674Z,17.63
2022-12-24T19:04:02.150Z,23.50
2022-12-24T19:06:29.100Z,18.45
2022-12-24T19:08:57.575Z,19.75
2022-12-24T19:11:25.655Z,18.85
2022-12-24T19:13:55.055Z,22.95
2022-12-24T19:16:22.350Z,19.27
2022-12-24T19:18:49.501Z,22.83
2022-12-24T19:21:17.922Z,27.13
2022-12-24T19:23:46.304Z,21.63
2022-12-24T19:26:15.313Z,21.55
2022-12-24T19:28:42.626Z,23.63
2022-12-24T19:31:17.713Z,23.65
2022-12-24T19:33:47.998Z,26.05
2022-12-24T19:36:21.617Z,21.27
2022-12-24T19:38:48.623Z,32.58
2022-12-24T19:41:24.380Z,30.58
2022-12-24T19:43:55.975Z,29.33
2022-12-24T19:46:26.299Z,34.47
2022-12-24T19:48:57.802Z,37.25
2022-12-24T19:51:27.183Z,30.27
2022-12-24T19:53:55.590Z,33.95
2022-12-24T19:56:24.282Z,24.77
2022-12-24T19:58:51.518Z,24.23
2022-12-24T20:01:25.094Z,21.10
2022-12-24T20:03:53.424Z,21.40
2022-12-24T20:06:23.713Z,18.70
2022-12-24T20:08:50.519Z,33.58
2022-12-24T20:11:20.754Z,27.88
2022-12-24T20:13:47.840Z,26.20
2022-12-24T20:16:21.167Z,22.90
2022-12-24T20:18:53.694Z,23.45
2022-12-24T20:21:21.094Z,22.73
2022-12-24T20:23:48.246Z,18.42
2022-12-24T20:26:18.317Z,22.65
2022-12-24T20:28:45.803Z,20.63
2022-12-24T20:31:28.113Z,21.90
2022-12-24T20:36:24.416Z,15.18
2022-12-24T20:38:51.631Z,20.25
2022-12-24T20:41:21.988Z,13.50
2022-12-24T20:43:50.303Z,21.88
2022-12-24T20:46:20.075Z,21.95
2022-12-24T20:48:47.622Z,22.95
2022-12-24T20:51:24.794Z,25.00
2022-12-24T20:53:58.285Z,20.48
2022-12-24T20:56:26.227Z,26.58
2022-12-24T20:58:53.510Z,21.42
2022-12-24T21:01:26.268Z,17.30
2022-12-24T21:03:55.713Z,21.08
2022-12-24T21:06:24.581Z,17.80
2022-12-24T21:08:52.813Z,18.17
2022-12-24T21:11:38.949Z,23.30
2022-12-24T21:14:06.080Z,24.27
2022-12-24T21:16:35.238Z,19.40
2022-12-24T21:19:03.132Z,20.20
2022-12-24T21:21:30.171Z,18.02
2022-12-24T21:23:57.581Z,25.55
2022-12-24T21:26:24.425Z,22.00
2022-12-24T21:28:51.284Z,23.92
2022-12-24T21:31:18.323Z,19.17
2022-12-24T21:33:45.684Z,23.42
2022-12-24T21:36:13.821Z,23.83
2022-12-24T21:38:40.821Z,15.20
2022-12-24T21:41:13.195Z,15.88
2022-12-24T21:43:40.041Z,24.55
2022-12-24T21:46:13.771Z,33.13
2022-12-24T21:48:59.389Z,25.77
2022-12-24T21:51:27.572Z,23.08
2022-12-24T21:54:13.693Z,22.45
2022-12-24T21:56:59.913Z,21.35
2022-12-24T21:59:27.424Z,16.67
2022-12-24T22:01:55.825Z,26.67
2022-12-24T22:04:23.392Z,17.52
2022-12-24T22:07:08.587Z,20.75
2022-12-24T22:09:54.243Z,20.20
2022-12-24T22:12:20.967Z,19.85
2022-12-24T22:14:47.808Z,18.63
2022-12-24T22:17:18.228Z,14.13
2022-12-24T22:19:48.011Z,22.15
2022-12-24T22:22:14.716Z,15.15
2022-12-24T22:24:41.499Z,18.30
2022-12-24T22:27:08.225Z,25.77
2022-12-24T22:29:34.927Z,20.23
2022-12-24T22:32:01.661Z,18.08
2022-12-24T22:34:28.414Z,27.63
2022-12-24T22:36:55.122Z,20.15
2022-12-24T22:39:21.874Z,15.05
2022-12-24T22:41:52.118Z,20.20
2022-12-24T22:44:18.988Z,14.93
2022-12-24T22:46:45.717Z,19.73
2022-12-24T22:49:12.431Z,15.50
2022-12-24T22:51:39.132Z,20.00
2022-12-24T22:54:05.862Z,17.15
2022-12-24T22:56:38.835Z,18.92
2022-12-24T22:59:07.585Z,19.40
2022-12-24T23:01:37.732Z,18.48
2022-12-24T23:04:06.065Z,14.73
2022-12-24T23:06:34.282Z,20.55
2022-12-24T23:09:01.871Z,15.55
2022-12-24T23:11:28.692Z,11.65
2022-12-24T23:14:13.722Z,13.13
2022-12-24T23:16:40.424Z,21.90
2022-12-24T23:19:07.290Z,13.45
2022-12-24T23:21:35.795Z,14.20
2022-12-24T23:24:02.590Z,17.13
2022-12-24T23:26:29.915Z,11.70
2022-12-24T23:28:57.506Z,16.42
2022-12-24T23:31:25.691Z,15.00
2022-12-24T23:33:52.904Z,14.38
2022-12-24T23:36:20.064Z,15.25
2022-12-24T23:38:47.451Z,15.65
2022-12-24T23:41:18.718Z,15.68
2022-12-24T23:43:46.311Z,13.33
2022-12-24T23:46:18.357Z,10.45
2022-12-24T23:48:48.277Z,14.57
2022-12-24T23:51:23.423Z,13.52
2022-12-24T23:53:52.093Z,16.65
2022-12-24T23:56:19.574Z,11.73
2022-12-24T23:58:46.843Z,12.45
